createdAt,value
2022-10-15T00:01:19.466Z,99907.41
2022-10-15T00:03:46.196Z,99912.97
2022-10-15T00:06:18.983Z,99914.94
2022-10-15T00:08:47.019Z,99916.47
2022-10-15T00:11:20.687Z,99902.22
2022-10-15T00:13:47.867Z,99893.06
2022-10-15T00:16:17.159Z,99888.31
2022-10-15T00:18:44.773Z,99884.34
2022-10-15T00:21:15.164Z,99891.09
2022-10-15T00:23:42.838Z,99889.91
2022-10-15T00:26:12.646Z,99894.66
2022-10-15T00:28:40.848Z,99903.94
2022-10-15T00:31:10.297Z,99912.16
2022-10-15T00:33:37.310Z,99909.75
2022-10-15T00:36:07.311Z,99914.63
2022-10-15T00:38:35.399Z,99921.69
2022-10-15T00:41:03.498Z,99911.84
2022-10-15T00:43:44.060Z,99916.13
2022-10-15T00:46:22.677Z,99920.50
2022-10-15T00:48:55.020Z,99924.22
2022-10-15T00:51:25.951Z,99937.69
2022-10-15T00:53:52.778Z,99937.69
2022-10-15T00:56:22.672Z,99933.28
2022-10-15T00:58:52.386Z,99937.00
2022-10-15T01:01:19.147Z,99937.69
2022-10-15T01:03:46.023Z,99921.78
2022-10-15T01:06:12.807Z,99923.41
2022-10-15T01:08:42.200Z,99925.38
2022-10-15T01:11:32.679Z,99923.31
2022-10-15T01:14:08.874Z,99932.81
2022-10-15T01:16:46.969Z,99919.69
2022-10-15T01:19:31.831Z,99935.34
2022-10-15T01:22:06.350Z,99930.13
2022-10-15T01:24:35.716Z,99929.78
2022-10-15T01:27:05.273Z,99924.22
2022-10-15T01:29:34.683Z,99913.78
2022-10-15T01:32:30.192Z,99907.41
2022-10-15T01:35:06.427Z,99905.91
2022-10-15T01:37:46.264Z,99901.16
2022-10-15T01:40:32.306Z,99909.03
2022-10-15T01:43:03.787Z,99909.03
2022-10-15T01:46:22.036Z,99913.91
2022-10-15T01:52:12.676Z,99910.56
2022-10-15T01:54:40.610Z,99909.88
2022-10-15T01:57:08.070Z,99911.47
2022-10-15T01:59:35.525Z,99896.28
2022-10-15T02:02:02.241Z,99894.78
2022-10-15T02:04:31.197Z,99888.06
2022-10-15T02:07:00.485Z,99885.59
2022-10-15T02:09:35.144Z,99894.78
2022-10-15T02:12:11.143Z,99896.41
2022-10-15T02:14:44.671Z,99903.59
2022-10-15T02:17:15.172Z,99904.31
2022-10-15T02:20:04.899Z,99902.66
2022-10-15T02:22:37.431Z,99894.78
2022-10-15T02:25:20.466Z,99884.34
2022-10-15T02:27:50.548Z,99881.22
2022-10-15T02:30:18.274Z,99878.88
2022-10-15T02:32:49.182Z,99876.56
2022-10-15T02:35:21.375Z,99871.81
2022-10-15T02:37:52.053Z,99862.19
2022-10-15T02:40:23.559Z,99872.50
2022-10-15T02:42:52.189Z,99869.72
2022-10-15T02:45:20.102Z,99858.34
2022-10-15T02:47:46.702Z,99859.50
2022-10-15T02:50:13.795Z,99861.34
2022-10-15T02:52:40.677Z,99855.22
2022-10-15T02:55:07.630Z,99861.38
2022-10-15T02:57:34.938Z,99860.13
2022-10-15T03:00:03.163Z,99852.13
2022-10-15T03:02:29.786Z,99854.44
2022-10-15T03:04:56.414Z,99857.22
2022-10-15T03:07:23.867Z,99854.91
2022-10-15T03:09:50.940Z,99855.63
2022-10-15T03:12:17.652Z,99848.44
2022-10-15T03:14:44.292Z,99854.81
2022-10-15T03:17:10.953Z,99855.63
2022-10-15T03:19:38.546Z,99852.38
2022-10-15T03:22:05.349Z,99860.38
2022-10-15T03:24:41.989Z,99855.63
2022-10-15T03:27:08.750Z,99859.56
2022-10-15T03:29:35.560Z,99861.88
2022-10-15T03:32:03.612Z,99867.47
2022-10-15T03:34:30.207Z,99870.25
2022-10-15T03:36:56.992Z,99861.41
2022-10-15T03:39:23.741Z,99860.25
2022-10-15T03:41:55.333Z,99856.66
2022-10-15T03:44:30.029Z,99846.72
2022-10-15T03:47:06.927Z,99832.81
2022-10-15T03:49:43.662Z,99828.41
2022-10-15T03:52:10.533Z,99831.19
2022-10-15T03:54:38.319Z,99823.66
2022-10-15T03:57:05.136Z,99827.56
2022-10-15T03:59:35.552Z,99818.09
2022-10-15T04:02:03.457Z,99818.78
2022-10-15T04:04:32.208Z,99823.66
2022-10-15T04:06:59.407Z,99826.75
2022-10-15T04:09:26.590Z,99834.28
2022-10-15T04:12:03.700Z,99831.50
2022-10-15T04:14:30.370Z,99843.13
2022-10-15T04:16:59.173Z,99841.50
2022-10-15T04:19:27.206Z,99845.09
2022-10-15T04:22:01.268Z,99841.03
2022-10-15T04:24:32.573Z,99846.59
2022-10-15T04:26:59.213Z,99846.59
2022-10-15T04:29:26.136Z,99843.81
2022-10-15T04:31:53.682Z,99844.97
2022-10-15T04:34:20.396Z,99839.41
2022-10-15T04:36:48.192Z,99833.84
2022-10-15T04:39:19.666Z,99825.06
2022-10-15T04:41:46.241Z,99826.69
2022-10-15T04:44:15.509Z,99830.63
2022-10-15T04:46:48.106Z,99815.56
2022-10-15T04:49:29.721Z,99815.56
2022-10-15T04:51:56.752Z,99817.16
2022-10-15T04:54:29.122Z,99817.97
2022-10-15T04:56:58.900Z,99820.31
2022-10-15T04:59:25.625Z,99814.75
2022-10-15T05:02:11.672Z,99821.81
2022-10-15T05:04:38.799Z,99820.63
2022-10-15T05:07:05.541Z,99812.28
2022-10-15T05:09:35.621Z,99817.84
2022-10-15T05:12:03.875Z,99818.34
2022-10-15T05:14:30.716Z,99813.13
2022-10-15T05:17:11.740Z,99822.28
2022-10-15T05:19:41.220Z,99821.13
2022-10-15T05:22:15.255Z,99816.72
2022-10-15T05:24:48.299Z,99817.03
2022-10-15T05:27:47.371Z,99812.28
2022-10-15T05:30:14.380Z,99811.84
2022-10-15T05:32:54.860Z,99813.47
2022-10-15T05:35:40.009Z,99821.00
2022-10-15T05:38:06.930Z,99818.22
2022-10-15T05:40:33.646Z,99816.25
2022-10-15T05:43:11.403Z,99813.81
2022-10-15T05:45:38.359Z,99824.94
2022-10-15T05:48:07.819Z,99827.38
2022-10-15T05:50:35.376Z,99821.00
2022-10-15T05:53:04.328Z,99814.63
2022-10-15T05:55:44.269Z,99812.19
2022-10-15T05:58:10.978Z,99818.56
2022-10-15T06:00:39.646Z,99820.19
2022-10-15T06:03:06.161Z,99818.56
2022-10-15T06:05:32.909Z,99823.31
2022-10-15T06:07:59.724Z,99818.56
2022-10-15T06:10:28.412Z,99829.69
2022-10-15T06:12:55.538Z,99814.63
2022-10-15T06:15:22.427Z,99824.13
2022-10-15T06:17:54.168Z,99828.09
2022-10-15T06:20:20.919Z,99825.31
2022-10-15T06:22:47.685Z,99827.28
2022-10-15T06:25:14.578Z,99815.69
2022-10-15T06:27:41.237Z,99813.69
2022-10-15T06:30:08.948Z,99818.13
2022-10-15T06:32:35.540Z,99818.13
2022-10-15T06:35:02.221Z,99813.00
2022-10-15T06:37:29.813Z,99818.13
2022-10-15T06:39:58.348Z,99818.56
2022-10-15T06:42:24.930Z,99809.78
2022-10-15T06:44:54.945Z,99818.13
2022-10-15T06:47:21.821Z,99812.56
2022-10-15T06:49:48.783Z,99819.38
2022-10-15T06:52:15.831Z,99816.97
2022-10-15T06:54:42.399Z,99809.78
2022-10-15T06:57:10.805Z,99797.03
2022-10-15T06:59:40.469Z,99795.50
2022-10-15T07:02:11.389Z,99798.66
2022-10-15T07:04:38.245Z,99794.59
2022-10-15T07:07:04.814Z,99795.41
2022-10-15T07:09:31.869Z,99793.09
2022-10-15T07:11:58.486Z,99779.63
2022-10-15T07:14:25.541Z,99777.22
2022-10-15T07:16:52.778Z,99787.53
2022-10-15T07:19:22.695Z,99783.59
2022-10-15T07:21:49.327Z,99782.41
2022-10-15T07:24:17.741Z,99775.56
2022-10-15T07:26:44.659Z,99769.19
2022-10-15T07:29:11.592Z,99774.75
2022-10-15T07:31:38.313Z,99780.31
2022-10-15T07:34:06.428Z,99772.47
2022-10-15T07:36:33.167Z,99768.50
2022-10-15T07:38:59.663Z,99765.28
2022-10-15T07:41:26.263Z,99764.81
2022-10-15T07:43:53.859Z,99766.09
2022-10-15T07:46:20.467Z,99755.28
2022-10-15T07:48:53.956Z,99759.72
2022-10-15T07:51:20.505Z,99751.72
2022-10-15T07:53:49.756Z,99751.38
2022-10-15T07:56:16.940Z,99749.41
2022-10-15T07:58:51.226Z,99748.56
2022-10-15T08:01:19.582Z,99750.22
2022-10-15T08:03:46.976Z,99747.88
2022-10-15T08:06:14.004Z,99751.81
2022-10-15T08:08:41.124Z,99740.78
2022-10-15T08:11:13.130Z,99745.53
2022-10-15T08:13:43.134Z,99742.31
2022-10-15T08:16:12.006Z,99735.13
2022-10-15T08:18:39.069Z,99735.13
2022-10-15T08:21:06.851Z,99722.47
2022-10-15T08:23:33.973Z,99731.53
2022-10-15T08:26:01.264Z,99735.13
2022-10-15T08:28:28.893Z,99733.16
2022-10-15T08:31:04.366Z,99735.59
2022-10-15T08:33:33.640Z,99730.03
2022-10-15T08:36:00.367Z,99734.41
2022-10-15T08:38:27.004Z,99732.09
2022-10-15T08:40:58.186Z,99736.03
2022-10-15T08:43:31.130Z,99736.75
2022-10-15T08:46:03.152Z,99722.47
2022-10-15T08:48:33.644Z,99718.91
2022-10-15T08:51:07.004Z,99716.13
2022-10-15T08:53:40.445Z,99725.78
2022-10-15T08:56:17.160Z,99717.38
2022-10-15T08:59:17.837Z,99724.09
2022-10-15T09:02:03.194Z,99726.06
2022-10-15T09:04:48.116Z,99713.88
2022-10-15T09:07:44.786Z,99719.09
2022-10-15T09:10:35.112Z,99711.44
2022-10-15T09:13:09.613Z,99711.44
2022-10-15T09:15:53.987Z,99708.31
2022-10-15T09:18:23.990Z,99710.41
2022-10-15T09:20:52.612Z,99708.31
2022-10-15T09:23:22.422Z,99709.47
2022-10-15T09:25:55.360Z,99711.88
2022-10-15T09:28:27.742Z,99715.47
2022-10-15T09:30:58.226Z,99707.94
2022-10-15T09:33:57.469Z,99710.75
2022-10-15T09:36:37.795Z,99704.47
2022-10-15T09:42:38.143Z,99700.06
2022-10-15T09:45:11.057Z,99706.09
2022-10-15T09:47:41.094Z,99705.28
2022-10-15T09:50:10.755Z,99702.94
2022-10-15T09:53:01.886Z,99699.34
2022-10-15T09:55:50.327Z,99689.84
2022-10-15T09:58:26.525Z,99690.38
2022-10-15T10:01:02.305Z,99691.91
2022-10-15T10:03:37.101Z,99693.97
2022-10-15T10:06:10.310Z,99695.22
2022-10-15T10:11:14.528Z,99701.63
2022-10-15T10:13:50.868Z,99698.56
2022-10-15T10:16:20.195Z,99701.78
2022-10-15T10:19:21.991Z,99702.06
2022-10-15T10:21:48.592Z,99699.28
2022-10-15T10:24:21.143Z,99698.94
2022-10-15T10:26:48.530Z,99699.00
2022-10-15T10:29:32.945Z,99705.75
2022-10-15T10:32:11.139Z,99710.59
2022-10-15T10:34:37.977Z,99712.19
2022-10-15T10:37:06.643Z,99718.00
2022-10-15T10:39:36.301Z,99713.81
2022-10-15T10:42:27.895Z,99712.19
2022-10-15T10:44:54.636Z,99714.53
2022-10-15T10:47:26.284Z,99712.19
2022-10-15T10:49:59.812Z,99707.88
2022-10-15T10:52:38.081Z,99709.41
2022-10-15T10:55:17.663Z,99707.88
2022-10-15T10:57:50.436Z,99705.25
2022-10-15T11:00:46.414Z,99712.44
2022-10-15T11:03:38.725Z,99704.91
2022-10-15T11:06:29.412Z,99700.94
2022-10-15T11:09:32.875Z,99703.38
2022-10-15T11:12:13.696Z,99706.88
2022-10-15T11:15:00.761Z,99704.53
2022-10-15T11:17:57.773Z,99699.88
2022-10-15T11:20:59.746Z,99696.59
2022-10-15T11:23:50.547Z,99707.75
2022-10-15T11:27:10.765Z,99692.66
2022-10-15T11:30:11.497Z,99702.28
2022-10-15T11:33:11.808Z,99699.97
2022-10-15T11:35:53.322Z,99695.19
2022-10-15T11:39:02.244Z,99692.41
2022-10-15T11:41:40.905Z,99695.19
2022-10-15T11:44:38.763Z,99705.59
2022-10-15T11:47:27.596Z,99696.38
2022-10-15T11:50:03.229Z,99691.25
2022-10-15T11:52:51.631Z,99699.31
2022-10-15T11:55:28.620Z,99696.91
2022-10-15T11:58:00.890Z,99692.16
2022-10-15T12:00:30.800Z,99694.47
2022-10-15T12:03:04.219Z,99687.28
2022-10-15T12:05:43.236Z,99697.72
2022-10-15T12:08:13.020Z,99690.78
2022-10-15T12:10:56.444Z,99691.59
2022-10-15T12:13:29.072Z,99685.88
2022-10-15T12:16:33.141Z,99689.91
2022-10-15T12:19:15.491Z,99693.03
2022-10-15T12:22:07.160Z,99690.88
2022-10-15T12:24:48.338Z,99686.03
2022-10-15T12:27:20.899Z,99688.53
2022-10-15T12:30:12.859Z,99694.75
2022-10-15T12:32:49.129Z,99689.34
2022-10-15T12:35:15.983Z,99687.81
2022-10-15T12:37:46.160Z,99674.16
2022-10-15T12:40:28.272Z,99674.25
2022-10-15T12:43:01.599Z,99673.00
2022-10-15T12:45:40.830Z,99668.78
2022-10-15T12:48:16.574Z,99668.69
2022-10-15T12:50:46.122Z,99669.50
2022-10-15T12:53:28.744Z,99664.00
2022-10-15T12:56:15.493Z,99672.00
2022-10-15T12:58:49.625Z,99661.72
2022-10-15T13:01:16.149Z,99667.59
2022-10-15T13:03:54.716Z,99654.56
2022-10-15T13:06:21.335Z,99665.78
2022-10-15T13:08:49.612Z,99661.47
2022-10-15T13:14:30.488Z,99659.03
2022-10-15T13:17:01.298Z,99661.00
2022-10-15T13:19:38.580Z,99660.22
2022-10-15T13:22:16.312Z,99660.38
2022-10-15T13:24:45.540Z,99661.91
2022-10-15T13:27:25.525Z,99665.78
2022-10-15T13:30:03.721Z,99696.25
2022-10-15T13:32:42.185Z,99728.03
2022-10-15T13:35:17.815Z,99733.63
2022-10-15T13:37:46.895Z,99739.09
2022-10-15T13:40:23.157Z,99730.28
2022-10-15T13:43:00.356Z,99725.53
2022-10-15T13:45:27.308Z,99727.94
2022-10-15T13:47:56.728Z,99725.59
2022-10-15T13:50:31.139Z,99727.13
2022-10-15T13:53:00.105Z,99731.13
2022-10-15T13:55:28.575Z,99727.66
2022-10-15T13:58:13.899Z,99730.44
2022-10-15T14:00:40.687Z,99731.25
2022-10-15T14:03:36.257Z,99740.88
2022-10-15T14:06:38.145Z,99739.19
2022-10-15T14:09:26.970Z,99738.28
2022-10-15T14:11:57.922Z,99744.03
2022-10-15T14:14:48.260Z,99747.25
2022-10-15T14:17:25.369Z,99756.06
2022-10-15T14:20:25.773Z,99751.16
2022-10-15T14:22:49.980Z,99754.38
2022-10-15T14:25:23.565Z,99764.69
2022-10-15T14:27:50.948Z,99763.09
2022-10-15T14:30:30.940Z,99764.88
2022-10-15T14:32:57.787Z,99763.09
2022-10-15T14:35:37.540Z,99778.28
2022-10-15T14:38:16.504Z,99788.16
2022-10-15T14:41:09.126Z,99791.03
2022-10-15T14:43:37.251Z,99799.75
2022-10-15T14:46:08.096Z,99795.81
2022-10-15T14:48:37.426Z,99805.31
2022-10-15T14:51:12.532Z,99811.72
2022-10-15T14:53:45.829Z,99821.31
2022-10-15T14:56:20.397Z,99818.09
2022-10-15T14:58:52.293Z,99816.72
2022-10-15T15:01:20.595Z,99819.69
2022-10-15T15:03:52.803Z,99831.38
2022-10-15T15:06:19.757Z,99826.53
2022-10-15T15:08:46.612Z,99836.84
2022-10-15T15:11:18.119Z,99841.16
2022-10-15T15:13:46.216Z,99842.81
2022-10-15T15:16:14.575Z,99844.31
2022-10-15T15:18:46.454Z,99842.09
2022-10-15T15:21:20.702Z,99838.03
2022-10-15T15:23:48.281Z,99839.47
2022-10-15T15:26:14.800Z,99835.53
2022-10-15T15:28:41.691Z,99834.81
2022-10-15T15:31:14.194Z,99844.31
2022-10-15T15:33:41.633Z,99842.69
2022-10-15T15:36:15.453Z,99847.47
2022-10-15T15:38:43.316Z,99850.63
2022-10-15T15:41:18.336Z,99843.88
2022-10-15T15:43:45.913Z,99854.75
2022-10-15T15:46:13.396Z,99852.59
2022-10-15T15:48:40.741Z,99848.16
2022-10-15T15:51:22.310Z,99844.31
2022-10-15T15:53:49.179Z,99848.66
2022-10-15T15:56:15.937Z,99857.09
2022-10-15T15:58:42.687Z,99851.53
2022-10-15T16:01:09.751Z,99858.69
2022-10-15T16:03:36.403Z,99859.88
2022-10-15T16:06:05.714Z,99861.94
2022-10-15T16:08:32.407Z,99871.47
2022-10-15T16:11:03.255Z,99861.84
2022-10-15T16:13:30.264Z,99867.34
2022-10-15T16:15:57.035Z,99872.19
2022-10-15T16:18:23.642Z,99871.75
2022-10-15T16:20:50.769Z,99868.16
2022-10-15T16:23:17.504Z,99864.28
2022-10-15T16:25:49.976Z,99864.88
2022-10-15T16:28:16.737Z,99874.97
2022-10-15T16:30:43.605Z,99878.47
2022-10-15T16:33:10.394Z,99886.38
2022-10-15T16:35:37.190Z,99881.69
2022-10-15T16:38:03.712Z,99892.13
2022-10-15T16:40:30.470Z,99893.03
2022-10-15T16:42:57.227Z,99900.16
2022-10-15T16:45:25.002Z,99903.53
2022-10-15T16:47:52.250Z,99900.03
2022-10-15T16:50:19.014Z,99901.19
2022-10-15T16:52:45.588Z,99907.50
2022-10-15T16:55:12.238Z,99919.09
2022-10-15T16:57:38.808Z,99928.09
2022-10-15T17:00:05.863Z,99932.22
2022-10-15T17:02:32.440Z,99944.56
2022-10-15T17:04:58.996Z,99942.00
2022-10-15T17:07:26.241Z,99950.19
2022-10-15T17:09:52.989Z,99953.41
2022-10-15T17:12:19.594Z,99959.00
2022-10-15T17:14:50.759Z,99962.16
2022-10-15T17:17:17.524Z,99962.50
2022-10-15T17:19:44.186Z,99966.91
2022-10-15T17:22:11.352Z,99971.56
2022-10-15T17:24:38.111Z,99969.97
2022-10-15T17:27:05.460Z,99971.56
2022-10-15T17:29:33.399Z,99966.00
2022-10-15T17:32:01.920Z,99978.66
2022-10-15T17:34:28.569Z,99978.31
2022-10-15T17:36:56.290Z,99995.03
2022-10-15T17:39:23.623Z,100004.09
2022-10-15T17:41:51.605Z,100016.13
2022-10-15T17:44:18.660Z,100020.81
2022-10-15T17:46:45.545Z,100010.13
2022-10-15T17:49:15.103Z,100015.25
2022-10-15T17:51:41.626Z,100014.06
2022-10-15T17:54:08.531Z,100026.47
2022-10-15T17:56:36.658Z,100026.38
2022-10-15T17:59:06.283Z,100028.69
2022-10-15T18:01:57.802Z,100025.47
2022-10-15T18:04:24.742Z,100021.50
2022-10-15T18:06:51.352Z,100018.25
2022-10-15T18:09:25.465Z,100032.66
2022-10-15T18:11:55.396Z,100029.41
2022-10-15T18:14:22.266Z,100033.38
2022-10-15T18:16:48.926Z,100031.72
2022-10-15T18:19:15.719Z,100034.88
2022-10-15T18:21:46.902Z,100038.47
2022-10-15T18:24:19.207Z,100036.84
2022-10-15T18:26:45.908Z,100039.97
2022-10-15T18:29:12.592Z,100029.66
2022-10-15T18:31:41.099Z,100028.84
2022-10-15T18:34:07.692Z,100030.84
2022-10-15T18:36:34.387Z,100031.16
2022-10-15T18:39:00.973Z,100040.34
2022-10-15T18:41:33.644Z,100045.91
2022-10-15T18:44:03.928Z,100053.44
2022-10-15T18:46:33.258Z,100055.41
2022-10-15T18:49:00.283Z,100059.03
2022-10-15T18:51:28.262Z,100055.41
2022-10-15T18:53:55.037Z,100064.59
2022-10-15T18:56:22.474Z,100072.94
2022-10-15T18:58:49.959Z,100070.53
2022-10-15T19:01:36.890Z,100063.31
2022-10-15T19:04:07.035Z,100066.94
2022-10-15T19:06:36.576Z,100064.47
2022-10-15T19:09:06.431Z,100057.31
2022-10-15T19:11:34.895Z,100061.69
2022-10-15T19:14:03.462Z,100069.34
2022-10-15T19:16:30.105Z,100068.63
2022-10-15T19:19:02.699Z,100059.59
2022-10-15T19:21:29.764Z,100056.34
2022-10-15T19:23:56.388Z,100061.81
2022-10-15T19:26:23.562Z,100076.53
2022-10-15T19:28:51.860Z,100079.34
2022-10-15T19:31:30.249Z,100073.75
2022-10-15T19:34:00.916Z,100073.41
2022-10-15T19:36:35.446Z,100082.13
2022-10-15T19:39:05.062Z,100086.06
2022-10-15T19:41:31.761Z,100079.34
2022-10-15T19:43:58.378Z,100076.09
2022-10-15T19:46:26.748Z,100065.75
2022-10-15T19:48:53.258Z,100061.69
2022-10-15T19:51:21.238Z,100080.03
2022-10-15T19:53:51.469Z,100086.44
2022-10-15T19:56:18.233Z,100088.75
2022-10-15T19:58:44.915Z,100101.50
2022-10-15T20:01:11.745Z,100103.47
2022-10-15T20:03:38.526Z,100089.91
2022-10-15T20:06:08.686Z,100108.59
2022-10-15T20:08:35.783Z,100113.09
2022-10-15T20:11:06.503Z,100122.63
2022-10-15T20:13:34.240Z,100118.22
2022-10-15T20:16:08.586Z,100120.66
2022-10-15T20:18:36.444Z,100120.19
2022-10-15T20:21:11.031Z,100122.25
2022-10-15T20:23:39.651Z,100131.09
2022-10-15T20:26:08.492Z,100122.25
2022-10-15T20:28:40.277Z,100141.31
2022-10-15T20:31:08.684Z,100129.34
2022-10-15T20:33:37.330Z,100134.09
2022-10-15T20:36:08.952Z,100136.56
2022-10-15T20:38:37.748Z,100120.19
2022-10-15T20:41:09.783Z,100120.53
2022-10-15T20:43:36.866Z,100131.31
2022-10-15T20:46:06.708Z,100132.50
2022-10-15T20:48:33.813Z,100135.38
2022-10-15T20:51:01.056Z,100135.75
2022-10-15T20:53:29.284Z,100139.66
2022-10-15T20:55:55.972Z,100135.03
2022-10-15T20:58:22.557Z,100135.75
2022-10-15T21:00:49.180Z,100135.75
2022-10-15T21:03:15.803Z,100137.38
2022-10-15T21:05:42.415Z,100148.50
2022-10-15T21:08:09.216Z,100158.84
2022-10-15T21:10:35.947Z,100150.94
2022-10-15T21:13:02.685Z,100151.28
2022-10-15T21:15:30.750Z,100156.88
2022-10-15T21:17:58.313Z,100165.22
2022-10-15T21:20:26.911Z,100158.94
2022-10-15T21:22:53.652Z,100163.34
2022-10-15T21:25:20.777Z,100161.25
2022-10-15T21:27:47.569Z,100166.94
2022-10-15T21:30:14.315Z,100166.13
2022-10-15T21:32:40.979Z,100179.59
2022-10-15T21:35:08.025Z,100175.41
2022-10-15T21:37:36.159Z,100178.91
2022-10-15T21:40:04.105Z,100181.31
2022-10-15T21:42:31.005Z,100180.06
2022-10-15T21:44:58.325Z,100186.81
2022-10-15T21:47:25.470Z,100179.25
2022-10-15T21:49:52.266Z,100192.38
2022-10-15T21:52:18.997Z,100179.59
2022-10-15T21:54:45.644Z,100187.97
2022-10-15T21:57:12.357Z,100190.28
2022-10-15T21:59:39.162Z,100184.72
2022-10-15T22:02:05.967Z,100194.34
2022-10-15T22:04:34.861Z,100190.25
2022-10-15T22:07:03.074Z,100194.09
2022-10-15T22:09:30.055Z,100199.56
2022-10-15T22:11:56.650Z,100203.53
2022-10-15T22:14:23.246Z,100198.41
2022-10-15T22:16:49.897Z,100199.09
2022-10-15T22:19:18.226Z,100193.06
2022-10-15T22:21:45.631Z,100201.88
2022-10-15T22:24:17.725Z,100207.00
2022-10-15T22:26:49.962Z,100217.78
2022-10-15T22:29:20.775Z,100213.84
2022-10-15T22:31:47.912Z,100211.88
2022-10-15T22:34:14.559Z,100211.88
2022-10-15T22:36:41.198Z,100216.25
2022-10-15T22:39:10.238Z,100220.22
2022-10-15T22:41:39.840Z,100222.66
2022-10-15T22:44:08.062Z,100222.78
2022-10-15T22:46:37.423Z,100221.84
2022-10-15T22:49:04.465Z,100217.78
2022-10-15T22:51:31.265Z,100225.81
2022-10-15T22:53:59.290Z,100222.19
2022-10-15T22:56:27.544Z,100224.28
2022-10-15T22:58:56.444Z,100220.00
2022-10-15T23:01:28.660Z,100222.78
2022-10-15T23:03:58.289Z,100205.13
2022-10-15T23:06:26.119Z,100211.06
2022-10-15T23:08:53.426Z,100213.16
2022-10-15T23:11:22.598Z,100213.97
2022-10-15T23:13:53.946Z,100203.97
2022-10-15T23:16:35.291Z,100211.50
2022-10-15T23:19:05.275Z,100205.13
2022-10-15T23:21:49.968Z,100207.47
2022-10-15T23:24:18.653Z,100214.66
2022-10-15T23:26:45.565Z,100217.53
2022-10-15T23:29:15.563Z,100214.66
2022-10-15T23:31:42.627Z,100209.53
2022-10-15T23:34:18.509Z,100215.44
2022-10-15T23:36:45.626Z,100222.19
2022-10-15T23:39:14.466Z,100223.47
2022-10-15T23:41:41.293Z,100230.19
2022-10-15T23:44:08.367Z,100223.47
2022-10-15T23:46:35.036Z,100222.66
2022-10-15T23:49:01.841Z,100221.16
2022-10-15T23:51:30.566Z,100220.69
2022-10-15T23:53:59.212Z,100221.03
2022-10-15T23:56:28.199Z,100215.44
2022-10-15T23:58:58.107Z,100209.09
